BAW23G EGLL-LOWI
Flight info
| Callsign | BAW23G |
|---|---|
| Flight time | 1h 59m |
| Altitude | 35000 |
| Route | DET L6 DVR UL9 KONAN UL607 MATUG DCT BOMBI/N0452F310 T104 WLD M867 BAVAX Z106 MANAL M736 TULSI TULSI3A |
| Aircraft | A321/M-SDE3FGHIRWY/LB1 |
Departure
| Time | 2026-05-05 11:39 |
|---|---|
| Airport | London Heathrow Airport (EGLL) |
Arrival
| Time | 2026-05-05 13:38 |
|---|---|
| Airport | Innsbruck Airport (LOWI) |
| Time | Latitude | Longitude | Altitude | Speed | Heading |
|---|---|---|---|---|---|
| 2026-05-05 11:11 | 51.47134 | -0.48612 | 90 ft | 0 kts | 269° |
| 2026-05-05 11:30 | 51.47134 | -0.48609 | 86 ft | 2 kts | 269° |
| 2026-05-05 11:30 | 51.47134 | -0.48567 | 88 ft | 4 kts | 266° |
| 2026-05-05 11:31 | 51.47137 | -0.48524 | 89 ft | 4 kts | 257° |
| 2026-05-05 11:31 | 51.47146 | -0.48486 | 87 ft | 4 kts | 226° |
| 2026-05-05 11:31 | 51.47159 | -0.48473 | 90 ft | 0 kts | 180° |
| 2026-05-05 11:34 | 51.47157 | -0.48473 | 90 ft | 1 kts | 180° |
| 2026-05-05 11:34 | 51.47135 | -0.48473 | 87 ft | 7 kts | 180° |
| 2026-05-05 11:34 | 51.47066 | -0.48473 | 86 ft | 12 kts | 180° |
| 2026-05-05 11:34 | 51.46970 | -0.48471 | 88 ft | 17 kts | 179° |
| 2026-05-05 11:35 | 51.46874 | -0.48469 | 88 ft | 10 kts | 179° |
| 2026-05-05 11:35 | 51.46834 | -0.48469 | 86 ft | 0 kts | 179° |
| 2026-05-05 11:36 | 51.46833 | -0.48469 | 86 ft | 0 kts | 179° |
| 2026-05-05 11:36 | 51.46825 | -0.48469 | 86 ft | 2 kts | 179° |
| 2026-05-05 11:36 | 51.46805 | -0.48469 | 86 ft | 4 kts | 180° |
| 2026-05-05 11:36 | 51.46766 | -0.48469 | 86 ft | 6 kts | 180° |
| 2026-05-05 11:37 | 51.46716 | -0.48469 | 86 ft | 9 kts | 180° |
| 2026-05-05 11:37 | 51.46647 | -0.48469 | 86 ft | 11 kts | 180° |
| 2026-05-05 11:37 | 51.46571 | -0.48469 | 86 ft | 12 kts | 179° |
| 2026-05-05 11:37 | 51.46492 | -0.48437 | 89 ft | 12 kts | 131° |
| 2026-05-05 11:38 | 51.46479 | -0.48295 | 88 ft | 16 kts | 89° |
| 2026-05-05 11:38 | 51.46479 | -0.48000 | 89 ft | 52 kts | 89° |
| 2026-05-05 11:38 | 51.46485 | -0.47045 | 91 ft | 117 kts | 88° |
| 2026-05-05 11:38 | 51.46492 | -0.45449 | 88 ft | 167 kts | 89° |
| 2026-05-05 11:39 | 51.46486 | -0.43472 | 420 ft | 183 kts | 89° |
| 2026-05-05 11:39 | 51.46461 | -0.41427 | 1124 ft | 184 kts | 90° |
| 2026-05-05 11:39 | 51.46365 | -0.39365 | 1855 ft | 186 kts | 92° |
| 2026-05-05 11:39 | 51.46178 | -0.37312 | 2598 ft | 185 kts | 94° |
| 2026-05-05 11:40 | 51.46014 | -0.35277 | 3373 ft | 183 kts | 92° |
| 2026-05-05 11:40 | 51.45889 | -0.33254 | 4122 ft | 181 kts | 91° |
| 2026-05-05 11:40 | 51.45784 | -0.31240 | 4816 ft | 185 kts | 97° |
| 2026-05-05 11:40 | 51.45398 | -0.29147 | 5152 ft | 208 kts | 108° |
| 2026-05-05 11:41 | 51.44850 | -0.26874 | 5359 ft | 230 kts | 108° |
| 2026-05-05 11:41 | 51.44259 | -0.24335 | 5558 ft | 253 kts | 107° |
| 2026-05-05 11:41 | 51.43682 | -0.21600 | 5985 ft | 263 kts | 106° |
| 2026-05-05 11:41 | 51.43139 | -0.18779 | 6575 ft | 267 kts | 105° |
| 2026-05-05 11:42 | 51.42624 | -0.15890 | 7208 ft | 272 kts | 104° |
| 2026-05-05 11:42 | 51.42127 | -0.12951 | 7868 ft | 276 kts | 103° |
| 2026-05-05 11:42 | 51.41642 | -0.09959 | 8521 ft | 279 kts | 103° |
| 2026-05-05 11:42 | 51.41158 | -0.06918 | 9154 ft | 284 kts | 102° |
| 2026-05-05 11:43 | 51.40670 | -0.03822 | 9786 ft | 288 kts | 103° |
| 2026-05-05 11:43 | 51.40173 | -0.00673 | 10215 ft | 300 kts | 103° |
| 2026-05-05 11:43 | 51.39650 | 0.02688 | 10332 ft | 320 kts | 100° |
| 2026-05-05 11:43 | 51.39296 | 0.06318 | 10459 ft | 339 kts | 97° |
| 2026-05-05 11:44 | 51.38993 | 0.10165 | 10584 ft | 357 kts | 96° |
| 2026-05-05 11:44 | 51.38682 | 0.14194 | 10766 ft | 371 kts | 96° |
| 2026-05-05 11:44 | 51.38358 | 0.18328 | 11222 ft | 376 kts | 96° |
| 2026-05-05 11:44 | 51.38029 | 0.22496 | 11753 ft | 379 kts | 96° |
| 2026-05-05 11:45 | 51.37699 | 0.26699 | 12300 ft | 381 kts | 97° |
| 2026-05-05 11:45 | 51.37357 | 0.30911 | 12866 ft | 383 kts | 96° |
| 2026-05-05 11:45 | 51.37009 | 0.35157 | 13404 ft | 386 kts | 96° |
| 2026-05-05 11:45 | 51.36661 | 0.39433 | 13853 ft | 389 kts | 97° |
| 2026-05-05 11:46 | 51.36307 | 0.43721 | 13953 ft | 388 kts | 96° |
| 2026-05-05 11:46 | 51.35950 | 0.48002 | 13979 ft | 388 kts | 97° |
| 2026-05-05 11:46 | 51.35612 | 0.52226 | 13978 ft | 388 kts | 97° |
| 2026-05-05 11:46 | 51.35261 | 0.56558 | 13979 ft | 387 kts | 97° |
| 2026-05-05 11:47 | 51.34919 | 0.60770 | 13980 ft | 387 kts | 97° |
| 2026-05-05 11:47 | 51.34577 | 0.65049 | 14063 ft | 391 kts | 97° |
| 2026-05-05 11:47 | 51.34230 | 0.69365 | 14569 ft | 392 kts | 96° |
| 2026-05-05 11:47 | 51.33879 | 0.73693 | 15041 ft | 394 kts | 97° |
| 2026-05-05 11:48 | 51.33195 | 0.82452 | 15933 ft | 399 kts | 96° |
| 2026-05-05 11:48 | 51.32856 | 0.86871 | 16393 ft | 402 kts | 96° |
| 2026-05-05 11:48 | 51.32520 | 0.91318 | 16832 ft | 405 kts | 97° |
| 2026-05-05 11:49 | 51.32181 | 0.95797 | 17249 ft | 407 kts | 97° |
| 2026-05-05 11:49 | 51.31851 | 1.00310 | 17683 ft | 409 kts | 97° |
| 2026-05-05 11:49 | 51.31526 | 1.04840 | 18082 ft | 413 kts | 97° |
| 2026-05-05 11:49 | 51.31201 | 1.09413 | 18482 ft | 415 kts | 97° |
| 2026-05-05 11:50 | 51.30882 | 1.13996 | 18863 ft | 416 kts | 97° |
| 2026-05-05 11:50 | 51.30446 | 1.18580 | 19222 ft | 418 kts | 106° |
| 2026-05-05 11:50 | 51.29317 | 1.22854 | 19584 ft | 419 kts | 122° |
| 2026-05-05 11:50 | 51.27469 | 1.26434 | 20006 ft | 419 kts | 139° |
| 2026-05-05 11:51 | 51.25062 | 1.29022 | 20430 ft | 419 kts | 153° |
| 2026-05-05 11:51 | 51.22469 | 1.31174 | 20855 ft | 420 kts | 149° |
| 2026-05-05 11:51 | 51.20119 | 1.33950 | 21230 ft | 421 kts | 137° |
| 2026-05-05 11:51 | 51.18172 | 1.37447 | 21611 ft | 424 kts | 126° |
| 2026-05-05 11:52 | 51.16721 | 1.41565 | 21881 ft | 429 kts | 114° |
| 2026-05-05 11:52 | 51.15866 | 1.46060 | 22219 ft | 433 kts | 101° |
| 2026-05-05 11:52 | 51.15553 | 1.50840 | 22608 ft | 435 kts | 95° |
| 2026-05-05 11:52 | 51.15334 | 1.55646 | 22964 ft | 436 kts | 96° |
| 2026-05-05 11:53 | 51.15100 | 1.60478 | 23279 ft | 439 kts | 96° |
| 2026-05-05 11:53 | 51.14858 | 1.65334 | 23618 ft | 440 kts | 96° |
| 2026-05-05 11:53 | 51.14612 | 1.70206 | 23896 ft | 443 kts | 96° |
| 2026-05-05 11:53 | 51.14363 | 1.75103 | 24162 ft | 445 kts | 96° |
| 2026-05-05 11:54 | 51.14114 | 1.80018 | 24451 ft | 447 kts | 96° |
| 2026-05-05 11:54 | 51.13862 | 1.84959 | 24683 ft | 449 kts | 96° |
| 2026-05-05 11:54 | 51.13603 | 1.89928 | 24932 ft | 451 kts | 96° |
| 2026-05-05 11:54 | 51.13345 | 1.94906 | 25199 ft | 452 kts | 97° |
| 2026-05-05 11:55 | 51.13084 | 1.99911 | 25423 ft | 455 kts | 97° |
| 2026-05-05 11:55 | 51.12819 | 2.04934 | 25669 ft | 456 kts | 97° |
| 2026-05-05 11:55 | 51.12553 | 2.09970 | 25889 ft | 457 kts | 96° |
| 2026-05-05 11:55 | 51.12284 | 2.15024 | 26096 ft | 459 kts | 96° |
| 2026-05-05 11:56 | 51.12012 | 2.20090 | 26315 ft | 460 kts | 96° |
| 2026-05-05 11:56 | 51.11737 | 2.25175 | 26493 ft | 462 kts | 97° |
| 2026-05-05 11:56 | 51.11458 | 2.30274 | 26715 ft | 462 kts | 97° |
| 2026-05-05 11:56 | 51.11173 | 2.35365 | 27015 ft | 461 kts | 96° |
| 2026-05-05 11:57 | 51.10886 | 2.40447 | 27255 ft | 461 kts | 97° |
| 2026-05-05 11:57 | 51.10597 | 2.45530 | 27526 ft | 461 kts | 97° |
| 2026-05-05 11:57 | 51.10307 | 2.50606 | 27788 ft | 461 kts | 97° |
| 2026-05-05 11:57 | 51.10014 | 2.55680 | 28058 ft | 460 kts | 98° |
| 2026-05-05 11:58 | 51.09719 | 2.60748 | 28348 ft | 460 kts | 97° |
| 2026-05-05 11:58 | 51.09297 | 2.65777 | 28596 ft | 458 kts | 104° |
| 2026-05-05 11:58 | 51.08493 | 2.70671 | 28864 ft | 457 kts | 108° |
| 2026-05-05 11:58 | 51.07620 | 2.75521 | 29150 ft | 456 kts | 107° |
| 2026-05-05 11:59 | 51.06741 | 2.80362 | 29420 ft | 456 kts | 108° |
| 2026-05-05 11:59 | 51.05858 | 2.85203 | 29693 ft | 456 kts | 108° |
| 2026-05-05 11:59 | 51.04973 | 2.90048 | 29890 ft | 458 kts | 108° |
| 2026-05-05 11:59 | 51.04084 | 2.94909 | 30111 ft | 458 kts | 108° |
| 2026-05-05 12:00 | 51.03191 | 2.99769 | 30342 ft | 458 kts | 108° |
| 2026-05-05 12:00 | 51.02298 | 3.04621 | 30578 ft | 458 kts | 108° |
| 2026-05-05 12:00 | 51.01419 | 3.09409 | 30810 ft | 457 kts | 108° |
| 2026-05-05 12:00 | 51.00527 | 3.14256 | 31057 ft | 457 kts | 109° |
| 2026-05-05 12:01 | 50.99633 | 3.19093 | 31302 ft | 456 kts | 109° |
| 2026-05-05 12:01 | 50.98737 | 3.23909 | 31548 ft | 455 kts | 109° |
| 2026-05-05 12:01 | 50.97837 | 3.28733 | 31788 ft | 455 kts | 109° |
| 2026-05-05 12:01 | 50.96939 | 3.33538 | 32026 ft | 454 kts | 110° |
| 2026-05-05 12:02 | 50.96043 | 3.38334 | 32264 ft | 453 kts | 110° |
| 2026-05-05 12:02 | 50.95146 | 3.43122 | 32514 ft | 452 kts | 110° |
| 2026-05-05 12:02 | 50.94249 | 3.47898 | 32773 ft | 452 kts | 111° |
| 2026-05-05 12:02 | 50.93352 | 3.52668 | 33019 ft | 451 kts | 111° |
| 2026-05-05 12:03 | 50.92456 | 3.57420 | 33262 ft | 450 kts | 111° |
| 2026-05-05 12:03 | 50.91559 | 3.62160 | 33507 ft | 449 kts | 111° |
| 2026-05-05 12:03 | 50.90659 | 3.66890 | 33750 ft | 448 kts | 111° |
| 2026-05-05 12:03 | 50.89753 | 3.71610 | 33978 ft | 447 kts | 112° |
| 2026-05-05 12:04 | 50.88843 | 3.76319 | 34147 ft | 447 kts | 112° |
| 2026-05-05 12:04 | 50.87931 | 3.81031 | 34282 ft | 448 kts | 112° |
| 2026-05-05 12:04 | 50.87015 | 3.85755 | 34418 ft | 449 kts | 112° |
| 2026-05-05 12:04 | 50.86096 | 3.90491 | 34569 ft | 450 kts | 112° |
| 2026-05-05 12:05 | 50.85174 | 3.95226 | 34713 ft | 450 kts | 112° |
| 2026-05-05 12:05 | 50.84250 | 3.99958 | 34869 ft | 451 kts | 112° |
| 2026-05-05 12:05 | 50.82388 | 4.09459 | 34914 ft | 453 kts | 112° |
| 2026-05-05 12:06 | 50.80519 | 4.18957 | 34915 ft | 453 kts | 112° |
| 2026-05-05 12:06 | 50.78655 | 4.28429 | 34916 ft | 449 kts | 112° |
| 2026-05-05 12:07 | 50.76783 | 4.37835 | 34919 ft | 448 kts | 112° |
| 2026-05-05 12:07 | 50.74901 | 4.47215 | 34920 ft | 448 kts | 112° |
| 2026-05-05 12:08 | 50.73007 | 4.56596 | 34924 ft | 449 kts | 112° |
| 2026-05-05 12:08 | 50.71137 | 4.65993 | 34926 ft | 449 kts | 111° |
| 2026-05-05 12:09 | 50.69322 | 4.75428 | 34895 ft | 450 kts | 111° |
| 2026-05-05 12:09 | 50.67499 | 4.84886 | 34896 ft | 451 kts | 111° |
| 2026-05-05 12:10 | 50.65649 | 4.94334 | 34896 ft | 451 kts | 112° |
| 2026-05-05 12:10 | 50.63740 | 5.03681 | 34898 ft | 451 kts | 112° |
| 2026-05-05 12:11 | 50.61778 | 5.13066 | 34889 ft | 452 kts | 113° |
| 2026-05-05 12:11 | 50.59818 | 5.22468 | 34899 ft | 452 kts | 112° |
| 2026-05-05 12:12 | 50.57871 | 5.31866 | 34895 ft | 452 kts | 112° |
| 2026-05-05 12:12 | 50.55921 | 5.41255 | 34890 ft | 451 kts | 113° |
| 2026-05-05 12:13 | 50.53953 | 5.50625 | 34891 ft | 452 kts | 113° |
| 2026-05-05 12:13 | 50.52291 | 5.58470 | 34879 ft | 452 kts | 113° |
| 2026-05-05 12:14 | 50.50725 | 5.68098 | 34878 ft | 457 kts | 106° |
| 2026-05-05 12:14 | 50.49481 | 5.77889 | 34880 ft | 457 kts | 106° |
| 2026-05-05 12:15 | 50.48222 | 5.87686 | 34888 ft | 457 kts | 106° |
| 2026-05-05 12:15 | 50.46941 | 5.97469 | 34887 ft | 458 kts | 106° |
| 2026-05-05 12:16 | 50.45643 | 6.07243 | 34874 ft | 458 kts | 107° |
| 2026-05-05 12:16 | 50.44354 | 6.16955 | 34871 ft | 458 kts | 107° |
| 2026-05-05 12:17 | 50.43048 | 6.26743 | 34863 ft | 458 kts | 107° |
| 2026-05-05 12:17 | 50.41732 | 6.36517 | 34857 ft | 458 kts | 107° |
| 2026-05-05 12:18 | 50.40402 | 6.46276 | 34858 ft | 458 kts | 107° |
| 2026-05-05 12:18 | 50.39053 | 6.56033 | 34845 ft | 458 kts | 107° |
| 2026-05-05 12:19 | 50.37697 | 6.65782 | 34855 ft | 458 kts | 108° |
| 2026-05-05 12:19 | 50.36334 | 6.75537 | 34869 ft | 458 kts | 108° |
| 2026-05-05 12:20 | 50.34960 | 6.85282 | 34878 ft | 458 kts | 108° |
| 2026-05-05 12:20 | 50.33579 | 6.95017 | 34861 ft | 458 kts | 108° |
| 2026-05-05 12:21 | 50.32191 | 7.04755 | 34868 ft | 459 kts | 108° |
| 2026-05-05 12:21 | 50.30799 | 7.14498 | 34872 ft | 459 kts | 108° |
| 2026-05-05 12:22 | 50.29396 | 7.24229 | 34873 ft | 459 kts | 108° |
| 2026-05-05 12:22 | 50.27983 | 7.33964 | 34874 ft | 459 kts | 108° |
| 2026-05-05 12:23 | 50.26679 | 7.42879 | 34861 ft | 460 kts | 109° |
| 2026-05-05 12:23 | 50.25244 | 7.52619 | 34860 ft | 460 kts | 109° |
| 2026-05-05 12:24 | 50.23796 | 7.62367 | 34860 ft | 460 kts | 109° |
| 2026-05-05 12:24 | 50.22347 | 7.72108 | 34864 ft | 461 kts | 109° |
| 2026-05-05 12:25 | 50.20889 | 7.81861 | 34865 ft | 461 kts | 109° |
| 2026-05-05 12:25 | 50.19421 | 7.91604 | 34854 ft | 462 kts | 109° |
| 2026-05-05 12:26 | 50.17942 | 8.01360 | 34862 ft | 462 kts | 109° |
| 2026-05-05 12:26 | 50.16454 | 8.11099 | 34869 ft | 462 kts | 109° |
| 2026-05-05 12:27 | 50.14959 | 8.20852 | 34874 ft | 462 kts | 109° |
| 2026-05-05 12:27 | 50.13451 | 8.30595 | 34859 ft | 462 kts | 109° |
| 2026-05-05 12:28 | 50.11930 | 8.40337 | 34859 ft | 463 kts | 109° |
| 2026-05-05 12:28 | 50.10404 | 8.50074 | 34850 ft | 462 kts | 109° |
| 2026-05-05 12:29 | 50.08876 | 8.59794 | 34856 ft | 462 kts | 109° |
| 2026-05-05 12:29 | 50.07343 | 8.69505 | 34861 ft | 461 kts | 109° |
| 2026-05-05 12:30 | 50.05135 | 8.78641 | 34862 ft | 448 kts | 126° |
| 2026-05-05 12:30 | 50.01368 | 8.86122 | 34858 ft | 434 kts | 143° |
| 2026-05-05 12:31 | 49.96903 | 8.92420 | 34861 ft | 433 kts | 143° |
| 2026-05-05 12:31 | 49.92441 | 8.98713 | 34861 ft | 434 kts | 143° |
| 2026-05-05 12:32 | 49.87971 | 9.05013 | 34861 ft | 434 kts | 143° |
| 2026-05-05 12:32 | 49.83510 | 9.11283 | 34845 ft | 435 kts | 143° |
| 2026-05-05 12:33 | 49.79029 | 9.17554 | 34858 ft | 434 kts | 143° |
| 2026-05-05 12:33 | 49.74548 | 9.23796 | 34868 ft | 433 kts | 143° |
| 2026-05-05 12:34 | 49.70069 | 9.30022 | 34865 ft | 433 kts | 143° |
| 2026-05-05 12:34 | 49.65595 | 9.36215 | 34869 ft | 432 kts | 143° |
| 2026-05-05 12:35 | 49.61194 | 9.42552 | 34866 ft | 436 kts | 136° |
| 2026-05-05 12:35 | 49.57201 | 9.49599 | 34852 ft | 437 kts | 136° |
| 2026-05-05 12:36 | 49.53197 | 9.56633 | 34864 ft | 437 kts | 136° |
| 2026-05-05 12:36 | 49.49185 | 9.63649 | 34866 ft | 436 kts | 136° |
| 2026-05-05 12:37 | 49.45170 | 9.70641 | 34863 ft | 436 kts | 136° |
| 2026-05-05 12:37 | 49.41152 | 9.77636 | 34863 ft | 436 kts | 136° |
| 2026-05-05 12:38 | 49.37131 | 9.84606 | 34845 ft | 436 kts | 136° |
| 2026-05-05 12:38 | 49.33098 | 9.91559 | 34848 ft | 436 kts | 136° |
| 2026-05-05 12:39 | 49.29061 | 9.98503 | 34856 ft | 437 kts | 136° |
| 2026-05-05 12:39 | 49.25020 | 10.05439 | 34862 ft | 437 kts | 136° |
| 2026-05-05 12:40 | 49.20976 | 10.12371 | 34864 ft | 436 kts | 136° |
| 2026-05-05 12:40 | 49.16931 | 10.19281 | 34873 ft | 436 kts | 136° |
| 2026-05-05 12:41 | 49.12899 | 10.26128 | 34860 ft | 436 kts | 137° |
| 2026-05-05 12:41 | 49.08738 | 10.32875 | 34873 ft | 436 kts | 139° |
| 2026-05-05 12:42 | 49.04528 | 10.39544 | 34875 ft | 436 kts | 138° |
| 2026-05-05 12:42 | 49.00331 | 10.46229 | 34883 ft | 436 kts | 138° |
| 2026-05-05 12:43 | 48.96141 | 10.52905 | 34886 ft | 436 kts | 138° |
| 2026-05-05 12:43 | 48.91946 | 10.59588 | 34855 ft | 436 kts | 138° |
| 2026-05-05 12:44 | 48.87750 | 10.66270 | 34850 ft | 438 kts | 139° |
| 2026-05-05 12:44 | 48.83529 | 10.72965 | 34841 ft | 439 kts | 139° |
| 2026-05-05 12:45 | 48.79292 | 10.79638 | 34832 ft | 439 kts | 139° |
| 2026-05-05 12:45 | 48.75047 | 10.86301 | 34841 ft | 439 kts | 139° |
| 2026-05-05 12:46 | 48.70798 | 10.92947 | 34837 ft | 439 kts | 139° |
| 2026-05-05 12:46 | 48.66545 | 10.99584 | 34824 ft | 440 kts | 139° |
| 2026-05-05 12:47 | 48.62278 | 11.06222 | 34826 ft | 440 kts | 139° |
| 2026-05-05 12:47 | 48.58004 | 11.12844 | 34830 ft | 441 kts | 138° |
| 2026-05-05 12:48 | 48.53866 | 11.19706 | 34834 ft | 443 kts | 135° |
| 2026-05-05 12:48 | 48.49877 | 11.26813 | 34835 ft | 444 kts | 134° |
| 2026-05-05 12:49 | 48.45881 | 11.33914 | 34811 ft | 444 kts | 135° |
| 2026-05-05 12:49 | 48.41851 | 11.40898 | 34817 ft | 445 kts | 135° |
| 2026-05-05 12:50 | 48.37764 | 11.47895 | 34820 ft | 446 kts | 135° |
| 2026-05-05 12:50 | 48.33666 | 11.54891 | 34824 ft | 446 kts | 135° |
| 2026-05-05 12:51 | 48.29555 | 11.61864 | 34822 ft | 444 kts | 139° |
| 2026-05-05 12:51 | 48.24665 | 11.67272 | 34817 ft | 434 kts | 157° |
| 2026-05-05 12:52 | 48.18988 | 11.70058 | 34814 ft | 428 kts | 170° |
| 2026-05-05 12:52 | 48.13175 | 11.72036 | 34818 ft | 429 kts | 169° |
| 2026-05-05 12:53 | 48.07355 | 11.74043 | 34811 ft | 429 kts | 169° |
| 2026-05-05 12:53 | 48.01530 | 11.76040 | 34812 ft | 431 kts | 169° |
| 2026-05-05 12:54 | 47.92746 | 11.79033 | 34799 ft | 432 kts | 169° |
| 2026-05-05 12:55 | 47.86807 | 11.79834 | 34809 ft | 428 kts | 184° |
| 2026-05-05 12:55 | 47.80850 | 11.79481 | 34813 ft | 429 kts | 184° |
| 2026-05-05 12:56 | 47.74889 | 11.79140 | 34814 ft | 429 kts | 184° |
| 2026-05-05 12:56 | 47.68927 | 11.79784 | 34821 ft | 434 kts | 169° |
| 2026-05-05 12:57 | 47.63201 | 11.82776 | 34808 ft | 438 kts | 162° |
| 2026-05-05 12:57 | 47.57496 | 11.85985 | 34814 ft | 439 kts | 163° |
| 2026-05-05 12:58 | 47.51654 | 11.87631 | 34826 ft | 428 kts | 187° |
| 2026-05-05 12:58 | 47.48755 | 11.86812 | 34818 ft | 422 kts | 201° |
| 2026-05-05 12:58 | 47.46121 | 11.84945 | 34816 ft | 419 kts | 215° |
| 2026-05-05 12:58 | 47.43911 | 11.82168 | 34817 ft | 418 kts | 229° |
| 2026-05-05 12:59 | 47.42238 | 11.78679 | 34817 ft | 418 kts | 242° |
| 2026-05-05 12:59 | 47.41188 | 11.74665 | 34820 ft | 421 kts | 255° |
| 2026-05-05 12:59 | 47.40696 | 11.70398 | 34840 ft | 423 kts | 259° |
| 2026-05-05 13:00 | 47.39540 | 11.58940 | 34835 ft | 425 kts | 258° |
| 2026-05-05 13:01 | 47.38258 | 11.46483 | 34440 ft | 396 kts | 258° |
| 2026-05-05 13:01 | 47.37837 | 11.42484 | 34080 ft | 393 kts | 257° |
| 2026-05-05 13:01 | 47.37417 | 11.38519 | 33657 ft | 389 kts | 257° |
| 2026-05-05 13:01 | 47.37000 | 11.34575 | 32330 ft | 392 kts | 258° |
| 2026-05-05 13:02 | 47.36581 | 11.30611 | 31172 ft | 391 kts | 257° |
| 2026-05-05 13:02 | 47.36161 | 11.26658 | 30201 ft | 387 kts | 256° |
| 2026-05-05 13:02 | 47.35747 | 11.22751 | 29086 ft | 385 kts | 256° |
| 2026-05-05 13:02 | 47.35338 | 11.18882 | 28134 ft | 379 kts | 256° |
| 2026-05-05 13:03 | 47.34934 | 11.15087 | 27278 ft | 371 kts | 256° |
| 2026-05-05 13:03 | 47.34537 | 11.11360 | 26445 ft | 363 kts | 256° |
| 2026-05-05 13:03 | 47.34146 | 11.07718 | 25653 ft | 357 kts | 256° |
| 2026-05-05 13:03 | 47.33758 | 11.04136 | 24917 ft | 350 kts | 256° |
| 2026-05-05 13:04 | 47.33378 | 11.00627 | 24175 ft | 344 kts | 256° |
| 2026-05-05 13:04 | 47.33002 | 10.97172 | 23438 ft | 339 kts | 256° |
| 2026-05-05 13:04 | 47.32629 | 10.93769 | 22568 ft | 335 kts | 256° |
| 2026-05-05 13:04 | 47.32260 | 10.90403 | 21700 ft | 330 kts | 257° |
| 2026-05-05 13:05 | 47.31896 | 10.87080 | 20873 ft | 326 kts | 257° |
| 2026-05-05 13:05 | 47.31537 | 10.83802 | 20056 ft | 322 kts | 257° |
| 2026-05-05 13:05 | 47.31183 | 10.80576 | 19173 ft | 316 kts | 257° |
| 2026-05-05 13:05 | 47.30829 | 10.77391 | 18343 ft | 313 kts | 257° |
| 2026-05-05 13:06 | 47.30480 | 10.74252 | 17400 ft | 308 kts | 257° |
| 2026-05-05 13:06 | 47.30134 | 10.71150 | 16587 ft | 304 kts | 257° |
| 2026-05-05 13:06 | 47.29794 | 10.68099 | 15834 ft | 299 kts | 258° |
| 2026-05-05 13:06 | 47.29340 | 10.65160 | 15089 ft | 289 kts | 242° |
| 2026-05-05 13:07 | 47.28094 | 10.62954 | 14392 ft | 280 kts | 212° |
| 2026-05-05 13:07 | 47.26289 | 10.62107 | 13549 ft | 279 kts | 180° |
| 2026-05-05 13:07 | 47.24450 | 10.62974 | 13014 ft | 291 kts | 146° |
| 2026-05-05 13:07 | 47.23165 | 10.65330 | 12847 ft | 299 kts | 118° |
| 2026-05-05 13:08 | 47.22597 | 10.68213 | 12838 ft | 295 kts | 98° |
| 2026-05-05 13:08 | 47.22750 | 10.71219 | 12844 ft | 299 kts | 75° |
| 2026-05-05 13:08 | 47.23673 | 10.73896 | 12843 ft | 290 kts | 50° |
| 2026-05-05 13:08 | 47.25173 | 10.75859 | 12528 ft | 293 kts | 32° |
| 2026-05-05 13:09 | 47.26892 | 10.77628 | 11698 ft | 310 kts | 40° |
| 2026-05-05 13:09 | 47.28373 | 10.80026 | 10861 ft | 324 kts | 57° |
| 2026-05-05 13:09 | 47.29374 | 10.83091 | 10151 ft | 331 kts | 75° |
| 2026-05-05 13:09 | 47.29773 | 10.86390 | 9690 ft | 320 kts | 85° |
| 2026-05-05 13:10 | 47.29948 | 10.89445 | 9600 ft | 288 kts | 89° |
| 2026-05-05 13:10 | 47.30054 | 10.92295 | 9538 ft | 273 kts | 90° |
| 2026-05-05 13:10 | 47.30133 | 10.94953 | 9488 ft | 247 kts | 89° |
| 2026-05-05 13:10 | 47.30206 | 10.97415 | 9357 ft | 234 kts | 90° |
| 2026-05-05 13:11 | 47.30279 | 10.99773 | 8784 ft | 228 kts | 89° |
| 2026-05-05 13:11 | 47.30353 | 11.02087 | 8165 ft | 225 kts | 91° |
| 2026-05-05 13:11 | 47.30429 | 11.04373 | 7572 ft | 221 kts | 90° |
| 2026-05-05 13:11 | 47.30506 | 11.06615 | 7058 ft | 215 kts | 90° |
| 2026-05-05 13:12 | 47.30416 | 11.08705 | 6961 ft | 200 kts | 103° |
| 2026-05-05 13:12 | 47.30004 | 11.10661 | 6969 ft | 199 kts | 115° |
| 2026-05-05 13:12 | 47.29442 | 11.12529 | 6959 ft | 200 kts | 116° |
| 2026-05-05 13:12 | 47.28888 | 11.14401 | 6961 ft | 200 kts | 115° |
| 2026-05-05 13:13 | 47.28335 | 11.16276 | 6965 ft | 199 kts | 115° |
| 2026-05-05 13:13 | 47.27783 | 11.18155 | 6964 ft | 200 kts | 116° |
| 2026-05-05 13:13 | 47.27235 | 11.20032 | 6965 ft | 199 kts | 115° |
| 2026-05-05 13:13 | 47.26693 | 11.21916 | 6846 ft | 199 kts | 116° |
| 2026-05-05 13:14 | 47.26183 | 11.23806 | 6185 ft | 198 kts | 113° |
| 2026-05-05 13:14 | 47.25880 | 11.25803 | 5431 ft | 202 kts | 96° |
| 2026-05-05 13:14 | 47.25988 | 11.27762 | 5394 ft | 191 kts | 85° |
| 2026-05-05 13:14 | 47.26180 | 11.29727 | 5647 ft | 196 kts | 88° |
| 2026-05-05 13:15 | 47.26371 | 11.31740 | 5743 ft | 202 kts | 81° |
| 2026-05-05 13:15 | 47.26666 | 11.33771 | 5744 ft | 203 kts | 81° |
| 2026-05-05 13:15 | 47.26975 | 11.35798 | 5742 ft | 203 kts | 81° |
| 2026-05-05 13:15 | 47.27323 | 11.37828 | 5737 ft | 206 kts | 73° |
| 2026-05-05 13:16 | 47.27853 | 11.39812 | 5947 ft | 208 kts | 70° |
| 2026-05-05 13:16 | 47.28411 | 11.41784 | 6226 ft | 214 kts | 70° |
| 2026-05-05 13:16 | 47.29013 | 11.43896 | 6537 ft | 229 kts | 70° |
| 2026-05-05 13:16 | 47.29640 | 11.46094 | 7014 ft | 235 kts | 70° |
| 2026-05-05 13:17 | 47.30278 | 11.48330 | 7573 ft | 237 kts | 69° |
| 2026-05-05 13:17 | 47.30919 | 11.50577 | 8076 ft | 239 kts | 70° |
| 2026-05-05 13:17 | 47.31566 | 11.52851 | 8521 ft | 243 kts | 71° |
| 2026-05-05 13:17 | 47.32220 | 11.55160 | 9009 ft | 245 kts | 71° |
| 2026-05-05 13:18 | 47.32879 | 11.57487 | 9498 ft | 247 kts | 70° |
| 2026-05-05 13:18 | 47.33555 | 11.59833 | 9956 ft | 252 kts | 67° |
| 2026-05-05 13:18 | 47.34632 | 11.61871 | 10208 ft | 255 kts | 39° |
| 2026-05-05 13:18 | 47.36221 | 11.62949 | 10577 ft | 256 kts | 9° |
| 2026-05-05 13:19 | 47.37964 | 11.62869 | 10993 ft | 250 kts | 340° |
| 2026-05-05 13:19 | 47.39457 | 11.61687 | 11351 ft | 241 kts | 313° |
| 2026-05-05 13:19 | 47.40418 | 11.59738 | 11742 ft | 232 kts | 288° |
| 2026-05-05 13:19 | 47.40740 | 11.57463 | 12166 ft | 225 kts | 265° |
| 2026-05-05 13:20 | 47.40530 | 11.55201 | 12571 ft | 223 kts | 256° |
| 2026-05-05 13:20 | 47.40259 | 11.52942 | 12915 ft | 226 kts | 257° |
| 2026-05-05 13:20 | 47.39987 | 11.50661 | 12956 ft | 225 kts | 257° |
| 2026-05-05 13:20 | 47.39718 | 11.48388 | 12966 ft | 225 kts | 258° |
| 2026-05-05 13:21 | 47.39448 | 11.46117 | 12975 ft | 225 kts | 257° |
| 2026-05-05 13:21 | 47.39178 | 11.43843 | 12975 ft | 225 kts | 257° |
| 2026-05-05 13:21 | 47.38907 | 11.41560 | 12973 ft | 226 kts | 257° |
| 2026-05-05 13:21 | 47.38638 | 11.39284 | 12977 ft | 226 kts | 257° |
| 2026-05-05 13:22 | 47.38366 | 11.36999 | 12979 ft | 225 kts | 257° |
| 2026-05-05 13:22 | 47.38093 | 11.34696 | 12977 ft | 231 kts | 257° |
| 2026-05-05 13:22 | 47.37814 | 11.32343 | 12976 ft | 234 kts | 257° |
| 2026-05-05 13:22 | 47.37531 | 11.29979 | 12973 ft | 234 kts | 257° |
| 2026-05-05 13:23 | 47.37248 | 11.27610 | 12989 ft | 235 kts | 257° |
| 2026-05-05 13:23 | 47.36962 | 11.25233 | 12991 ft | 236 kts | 258° |
| 2026-05-05 13:23 | 47.36673 | 11.22851 | 12949 ft | 236 kts | 257° |
| 2026-05-05 13:23 | 47.36386 | 11.20478 | 12939 ft | 234 kts | 257° |
| 2026-05-05 13:24 | 47.36103 | 11.18119 | 12943 ft | 234 kts | 258° |
| 2026-05-05 13:24 | 47.35818 | 11.15748 | 12938 ft | 235 kts | 257° |
| 2026-05-05 13:24 | 47.35531 | 11.13372 | 12937 ft | 235 kts | 257° |
| 2026-05-05 13:24 | 47.35244 | 11.11001 | 12934 ft | 235 kts | 257° |
| 2026-05-05 13:25 | 47.34956 | 11.08629 | 12939 ft | 236 kts | 259° |
| 2026-05-05 13:25 | 47.34668 | 11.06244 | 12964 ft | 236 kts | 257° |
| 2026-05-05 13:25 | 47.34377 | 11.03862 | 12954 ft | 236 kts | 257° |
| 2026-05-05 13:25 | 47.34087 | 11.01481 | 12952 ft | 236 kts | 258° |
| 2026-05-05 13:26 | 47.33797 | 10.99098 | 12959 ft | 236 kts | 257° |
| 2026-05-05 13:26 | 47.33510 | 10.96749 | 12918 ft | 233 kts | 257° |
| 2026-05-05 13:26 | 47.33229 | 10.94453 | 12208 ft | 227 kts | 257° |
| 2026-05-05 13:26 | 47.32943 | 10.92146 | 11389 ft | 230 kts | 257° |
| 2026-05-05 13:27 | 47.32654 | 10.89828 | 10602 ft | 231 kts | 257° |
| 2026-05-05 13:27 | 47.32366 | 10.87506 | 9870 ft | 229 kts | 257° |
| 2026-05-05 13:27 | 47.32080 | 10.85196 | 9126 ft | 228 kts | 257° |
| 2026-05-05 13:27 | 47.31792 | 10.82892 | 8400 ft | 229 kts | 257° |
| 2026-05-05 13:28 | 47.31498 | 10.80539 | 8224 ft | 239 kts | 257° |
| 2026-05-05 13:28 | 47.31201 | 10.78155 | 8849 ft | 234 kts | 257° |
| 2026-05-05 13:28 | 47.30909 | 10.75801 | 9352 ft | 232 kts | 257° |
| 2026-05-05 13:28 | 47.30617 | 10.73452 | 9780 ft | 235 kts | 257° |
| 2026-05-05 13:29 | 47.30320 | 10.71075 | 9927 ft | 236 kts | 257° |
| 2026-05-05 13:29 | 47.30021 | 10.68700 | 9950 ft | 234 kts | 257° |
| 2026-05-05 13:29 | 47.29670 | 10.66366 | 9935 ft | 231 kts | 246° |
| 2026-05-05 13:29 | 47.28641 | 10.64630 | 9958 ft | 228 kts | 208° |
| 2026-05-05 13:30 | 47.27094 | 10.64320 | 9954 ft | 235 kts | 168° |
| 2026-05-05 13:30 | 47.25719 | 10.65606 | 9953 ft | 242 kts | 131° |
| 2026-05-05 13:30 | 47.25177 | 10.67954 | 9951 ft | 252 kts | 94° |
| 2026-05-05 13:30 | 47.25527 | 10.70499 | 9957 ft | 257 kts | 71° |
| 2026-05-05 13:31 | 47.26205 | 10.72932 | 9824 ft | 257 kts | 70° |
| 2026-05-05 13:31 | 47.26897 | 10.75346 | 9482 ft | 254 kts | 70° |
| 2026-05-05 13:31 | 47.27593 | 10.77740 | 9301 ft | 255 kts | 69° |
| 2026-05-05 13:31 | 47.28293 | 10.80131 | 9188 ft | 253 kts | 69° |
| 2026-05-05 13:32 | 47.28964 | 10.82532 | 9302 ft | 253 kts | 72° |
| 2026-05-05 13:32 | 47.29452 | 10.84954 | 9398 ft | 243 kts | 78° |
| 2026-05-05 13:32 | 47.29750 | 10.87390 | 9432 ft | 240 kts | 84° |
| 2026-05-05 13:32 | 47.29873 | 10.89836 | 9417 ft | 238 kts | 90° |
| 2026-05-05 13:33 | 47.29960 | 10.92233 | 8872 ft | 233 kts | 89° |
| 2026-05-05 13:33 | 47.30050 | 10.94618 | 8178 ft | 232 kts | 89° |
| 2026-05-05 13:33 | 47.30140 | 10.96969 | 7547 ft | 228 kts | 88° |
| 2026-05-05 13:33 | 47.30229 | 10.99282 | 7038 ft | 221 kts | 89° |
| 2026-05-05 13:34 | 47.30315 | 11.01554 | 6949 ft | 224 kts | 90° |
| 2026-05-05 13:34 | 47.30400 | 11.03859 | 6950 ft | 225 kts | 88° |
| 2026-05-05 13:34 | 47.30400 | 11.06127 | 6706 ft | 216 kts | 95° |
| 2026-05-05 13:34 | 47.30235 | 11.08286 | 6370 ft | 210 kts | 102° |
| 2026-05-05 13:35 | 47.29918 | 11.10370 | 6007 ft | 207 kts | 109° |
| 2026-05-05 13:35 | 47.29475 | 11.12328 | 5714 ft | 203 kts | 112° |
| 2026-05-05 13:35 | 47.28926 | 11.14240 | 5297 ft | 201 kts | 113° |
| 2026-05-05 13:35 | 47.28399 | 11.16038 | 5038 ft | 181 kts | 114° |
| 2026-05-05 13:36 | 47.27904 | 11.17727 | 4957 ft | 181 kts | 114° |
| 2026-05-05 13:36 | 47.27410 | 11.19422 | 4957 ft | 180 kts | 114° |
| 2026-05-05 13:36 | 47.26917 | 11.21117 | 4956 ft | 180 kts | 113° |
| 2026-05-05 13:36 | 47.26439 | 11.22762 | 4954 ft | 171 kts | 114° |
| 2026-05-05 13:37 | 47.25974 | 11.24353 | 4952 ft | 169 kts | 115° |
| 2026-05-05 13:37 | 47.25518 | 11.25987 | 4420 ft | 179 kts | 113° |
| 2026-05-05 13:37 | 47.25415 | 11.27926 | 3420 ft | 200 kts | 88° |
| 2026-05-05 13:37 | 47.25566 | 11.30003 | 2426 ft | 205 kts | 83° |
| 2026-05-05 13:38 | 47.25758 | 11.31921 | 2131 ft | 175 kts | 83° |
| 2026-05-05 13:38 | 47.25932 | 11.33554 | 1903 ft | 147 kts | 84° |
| 2026-05-05 13:38 | 47.26052 | 11.34691 | 1904 ft | 63 kts | 82° |
| 2026-05-05 13:38 | 47.26065 | 11.34828 | 1898 ft | 0 kts | 82° |
| 2026-05-05 13:39 | 47.26066 | 11.34835 | 1904 ft | 1 kts | 82° |